Time;durP1;ratioP1;P1;durP2;ratioP2;P2;SDS_P1;SDS_P2;PMS_P1;PMS_P2;Temp;Humidity;BMP_temperature;BMP_pressure;BME280_temperature;BME280_humidity;BME280_pressure;Samples;Min_cycle;Max_cycle;Signal;HPM_P1;HPM_P2
2023/10/24 00:01:49;;;;;;;1999.90;999.90;;;11.60;99.90;;;;;;5066910;28;20453;-72
2023/10/24 00:04:16;;;;;;;1999.90;999.90;;;11.60;99.90;;;;;;5065195;28;20431;-72
2023/10/24 00:06:42;;;;;;;1999.90;999.90;;;11.60;99.90;;;;;;5067428;28;20428;-72
2023/10/24 00:09:09;;;;;;;1999.90;999.90;;;11.70;99.90;;;;;;5070945;28;20438;-72
2023/10/24 00:11:37;;;;;;;1999.90;999.90;;;11.70;99.90;;;;;;5066598;28;20427;-72
2023/10/24 00:14:04;;;;;;;1999.90;999.90;;;11.70;99.90;;;;;;5071526;28;20446;-73
2023/10/24 00:16:31;;;;;;;1999.90;999.90;;;11.60;99.90;;;;;;5068188;28;20431;-72
2023/10/24 00:18:58;;;;;;;1999.90;999.90;;;11.60;99.90;;;;;;5063308;28;20952;-72
2023/10/24 00:21:24;;;;;;;1999.90;999.90;;;11.70;99.90;;;;;;5069808;28;20435;-72
2023/10/24 00:23:52;;;;;;;1999.90;999.90;;;11.60;99.90;;;;;;5067921;28;20431;-72
2023/10/24 00:26:19;;;;;;;1999.90;999.90;;;11.60;99.90;;;;;;5071346;28;20427;-72
2023/10/24 00:28:47;;;;;;;1999.90;999.90;;;11.50;99.90;;;;;;5068224;28;20443;-72
2023/10/24 00:31:13;;;;;;;1999.90;999.90;;;11.50;99.90;;;;;;5074879;28;20431;-73
2023/10/24 00:33:41;;;;;;;1999.90;999.90;;;11.50;99.90;;;;;;5074170;28;20427;-72
2023/10/24 00:36:07;;;;;;;1999.90;999.90;;;11.50;99.90;;;;;;5075933;28;20425;-73
2023/10/24 00:38:34;;;;;;;1999.90;999.90;;;11.40;99.90;;;;;;5078078;28;20431;-72
2023/10/24 00:41:01;;;;;;;1999.90;999.90;;;11.40;99.90;;;;;;5069846;28;20507;-72
2023/10/24 00:43:28;;;;;;;1999.90;999.90;;;11.40;99.90;;;;;;5071305;28;20435;-72
2023/10/24 00:45:56;;;;;;;1999.90;999.90;;;11.50;99.90;;;;;;5070894;28;20440;-72
2023/10/24 00:48:23;;;;;;;1999.90;999.90;;;11.50;99.90;;;;;;5069713;28;20925;-72
2023/10/24 00:50:49;;;;;;;1999.90;999.90;;;11.50;99.90;;;;;;5066408;28;21116;-72
2023/10/24 00:53:18;;;;;;;1999.90;999.90;;;11.60;99.90;;;;;;5068530;28;20423;-72
2023/10/24 00:55:45;;;;;;;1999.90;999.90;;;11.70;99.90;;;;;;5063908;28;20519;-72
2023/10/24 00:58:12;;;;;;;1999.90;999.90;;;11.70;99.90;;;;;;5068696;28;20435;-72
2023/10/24 01:00:41;;;;;;;1999.90;999.90;;;11.80;99.90;;;;;;5067151;28;20432;-72
2023/10/24 01:03:09;;;;;;;1999.90;999.90;;;11.90;99.90;;;;;;5068609;28;20424;-72
2023/10/24 01:05:36;;;;;;;1999.90;999.90;;;12.00;99.90;;;;;;5067809;28;20424;-70
2023/10/24 01:08:03;;;;;;;1999.90;999.90;;;12.00;99.90;;;;;;5068983;28;20435;-72
2023/10/24 01:10:30;;;;;;;1999.90;999.90;;;11.90;99.90;;;;;;5070430;28;20442;-72
2023/10/24 01:12:56;;;;;;;1999.90;999.90;;;11.90;99.90;;;;;;5070227;28;20936;-69
2023/10/24 01:15:23;;;;;;;1999.90;999.90;;;11.80;99.90;;;;;;5068491;28;20444;-72
2023/10/24 01:17:51;;;;;;;1999.90;999.90;;;11.90;99.90;;;;;;5067146;28;20423;-73
2023/10/24 01:20:19;;;;;;;1999.90;999.90;;;11.90;99.90;;;;;;5069091;28;20933;-71
2023/10/24 01:22:48;;;;;;;1999.90;999.90;;;11.80;99.90;;;;;;5070342;28;20947;-71
2023/10/24 01:25:15;;;;;;;1999.90;999.90;;;11.80;99.90;;;;;;5069271;28;20423;-72
2023/10/24 01:27:44;;;;;;;1999.90;999.90;;;11.80;99.90;;;;;;5066680;28;20432;-72
2023/10/24 01:30:12;;;;;;;1999.90;999.90;;;11.80;99.90;;;;;;5065419;28;20444;-72
2023/10/24 01:32:39;;;;;;;1999.90;999.90;;;11.80;99.90;;;;;;5069974;28;20917;-72
2023/10/24 01:35:08;;;;;;;1999.90;999.90;;;11.80;99.90;;;;;;5068946;28;20431;-73
2023/10/24 01:37:35;;;;;;;1999.90;999.90;;;11.80;99.90;;;;;;5069961;28;20431;-71
2023/10/24 01:40:04;;;;;;;1999.90;999.90;;;11.80;99.90;;;;;;5063685;28;20483;-73
2023/10/24 01:42:30;;;;;;;1999.90;999.90;;;11.80;99.90;;;;;;5067579;28;20431;-73
2023/10/24 01:44:57;;;;;;;1999.90;999.90;;;11.70;99.90;;;;;;5065560;28;20452;-73
2023/10/24 01:47:24;;;;;;;1999.90;999.90;;;11.70;99.90;;;;;;5068330;28;20913;-72
2023/10/24 01:49:51;;;;;;;1999.90;999.90;;;11.80;99.90;;;;;;5068204;28;20431;-71
2023/10/24 01:52:17;;;;;;;1999.90;999.90;;;11.70;99.90;;;;;;5054873;28;20427;-73
2023/10/24 01:54:44;;;;;;;1999.90;999.90;;;11.70;99.90;;;;;;5069383;28;20437;-72
2023/10/24 01:57:12;;;;;;;1999.90;999.90;;;11.70;99.90;;;;;;5068781;28;20431;-73
2023/10/24 01:59:39;;;;;;;1999.90;999.90;;;11.60;99.90;;;;;;5068609;28;20465;-73
2023/10/24 02:02:05;;;;;;;1999.90;999.90;;;11.50;99.90;;;;;;5066409;28;20431;-73
2023/10/24 02:04:32;;;;;;;1999.90;999.90;;;11.60;99.90;;;;;;5069109;28;20446;-72
2023/10/24 02:06:59;;;;;;;1999.90;999.90;;;11.50;99.90;;;;;;5068785;28;20435;-72
2023/10/24 02:09:27;;;;;;;1999.90;999.90;;;11.40;99.90;;;;;;5068296;28;20431;-73
2023/10/24 02:11:54;;;;;;;1999.90;999.90;;;11.30;99.90;;;;;;5065398;28;20435;-73
2023/10/24 02:14:22;;;;;;;1999.90;999.90;;;11.30;99.90;;;;;;5066016;28;20443;-73
2023/10/24 02:16:49;;;;;;;1999.90;999.90;;;11.30;99.90;;;;;;5067211;28;20852;-72
2023/10/24 02:19:16;;;;;;;1999.90;999.90;;;11.30;99.90;;;;;;5062691;28;20443;-72
2023/10/24 02:21:42;;;;;;;1999.90;999.90;;;11.40;99.90;;;;;;5064833;28;20841;-70
2023/10/24 02:24:09;;;;;;;1999.90;999.90;;;11.40;99.90;;;;;;5067430;28;20435;-71
2023/10/24 02:26:36;;;;;;;1999.90;999.90;;;11.40;99.90;;;;;;5069075;28;20430;-72
2023/10/24 02:29:03;;;;;;;1999.90;999.90;;;11.90;99.90;;;;;;5060081;28;20439;-72
2023/10/24 02:31:31;;;;;;;1999.90;999.90;;;11.60;99.90;;;;;;5062096;28;20533;-71
2023/10/24 02:33:57;;;;;;;1999.90;999.90;;;11.80;99.90;;;;;;5068536;28;20428;-71
2023/10/24 02:36:24;;;;;;;1999.90;999.90;;;12.00;99.90;;;;;;5063041;28;20438;-71
2023/10/24 02:38:51;;;;;;;1999.90;999.90;;;12.20;99.90;;;;;;5067434;28;20431;-71
2023/10/24 02:41:18;;;;;;;1999.90;999.90;;;12.50;99.90;;;;;;5067326;28;20432;-72
2023/10/24 02:43:45;;;;;;;1999.90;999.90;;;12.60;99.90;;;;;;5068751;28;20420;-71
2023/10/24 02:46:11;;;;;;;1999.90;999.90;;;12.50;99.90;;;;;;5068502;28;20809;-71
2023/10/24 02:48:39;;;;;;;1999.90;999.90;;;12.30;99.90;;;;;;5065980;28;20436;-72
2023/10/24 02:51:06;;;;;;;1999.90;999.90;;;12.10;99.90;;;;;;5068672;28;20435;-72
2023/10/24 02:53:33;;;;;;;1999.90;999.90;;;11.90;99.90;;;;;;5067945;28;20481;-72
2023/10/24 02:56:02;;;;;;;1999.90;999.90;;;11.80;99.90;;;;;;5068683;28;20463;-72
2023/10/24 02:58:29;;;;;;;1999.90;999.90;;;11.70;99.90;;;;;;5067246;28;20438;-72
2023/10/24 03:00:56;;;;;;;1999.90;999.90;;;11.60;99.90;;;;;;5063718;28;20437;-72
2023/10/24 03:03:23;;;;;;;1999.90;999.90;;;11.80;99.90;;;;;;5063024;28;20835;-72
2023/10/24 03:05:51;;;;;;;1999.90;999.90;;;11.50;99.90;;;;;;5066059;28;20506;-72
2023/10/24 03:08:17;;;;;;;1999.90;999.90;;;11.50;99.90;;;;;;5065623;28;20427;-73
2023/10/24 03:10:44;;;;;;;1999.90;999.90;;;11.50;99.90;;;;;;5068395;28;20436;-72
2023/10/24 03:13:11;;;;;;;1999.90;999.90;;;11.50;99.90;;;;;;5063425;28;20437;-72
2023/10/24 03:15:39;;;;;;;1999.90;999.90;;;11.50;99.90;;;;;;5067468;28;20431;-72
2023/10/24 03:18:06;;;;;;;1999.90;999.90;;;12.00;99.90;;;;;;5065519;28;20437;-72
2023/10/24 03:20:32;;;;;;;1999.90;999.90;;;11.40;99.90;;;;;;5065325;28;20438;-72
2023/10/24 03:23:00;;;;;;;1999.90;999.90;;;11.50;99.90;;;;;;5067976;28;20802;-72
2023/10/24 03:25:28;;;;;;;1999.90;999.90;;;11.50;99.90;;;;;;5059988;28;20435;-72
2023/10/24 03:27:55;;;;;;;1999.90;999.90;;;11.50;99.90;;;;;;5065283;28;20443;-72
2023/10/24 03:30:22;;;;;;;1999.90;999.90;;;11.50;99.90;;;;;;5064421;28;21184;-72
2023/10/24 03:32:49;;;;;;;1999.90;999.90;;;11.50;99.90;;;;;;5065345;28;20431;-72
2023/10/24 03:35:17;;;;;;;1999.90;999.90;;;11.50;99.90;;;;;;5066962;28;20454;-72
2023/10/24 03:37:44;;;;;;;1999.90;999.90;;;11.60;99.90;;;;;;5066045;28;20463;-72
2023/10/24 03:40:12;;;;;;;1999.90;999.90;;;11.60;99.90;;;;;;5063844;28;20439;-72
2023/10/24 03:42:39;;;;;;;1999.90;999.90;;;11.80;99.90;;;;;;5068980;28;20813;-72
2023/10/24 03:45:06;;;;;;;1999.90;999.90;;;11.90;99.90;;;;;;5069801;28;20431;-72
2023/10/24 03:47:33;;;;;;;1999.90;999.90;;;12.10;99.90;;;;;;5065249;28;20438;-72
2023/10/24 03:50:00;;;;;;;1999.90;999.90;;;12.10;99.90;;;;;;5070198;28;20552;-72
2023/10/24 03:52:27;;;;;;;1999.90;999.90;;;12.30;99.90;;;;;;5071659;28;20434;-72
2023/10/24 03:54:54;;;;;;;1999.90;999.90;;;12.20;99.90;;;;;;5067586;28;20427;-72
2023/10/24 03:57:22;;;;;;;1999.90;999.90;;;12.20;99.90;;;;;;5071819;28;20438;-72
2023/10/24 03:59:48;;;;;;;1999.90;999.90;;;12.10;99.90;;;;;;5071774;28;20419;-71
2023/10/24 04:02:15;;;;;;;1999.90;999.90;;;11.90;99.90;;;;;;5069780;28;20432;-71
2023/10/24 04:04:42;;;;;;;1999.90;999.90;;;11.70;99.90;;;;;;5066957;28;20436;-71
2023/10/24 04:07:09;;;;;;;1999.90;999.90;;;11.60;99.90;;;;;;5071784;28;20432;-72
2023/10/24 04:09:35;;;;;;;1999.90;999.90;;;11.70;99.90;;;;;;5069857;28;20489;-71
2023/10/24 04:12:02;;;;;;;1999.90;999.90;;;11.50;99.90;;;;;;5070502;28;20434;-71
2023/10/24 04:14:30;;;;;;;1999.90;999.90;;;11.50;99.90;;;;;;5070132;28;21031;-72
2023/10/24 04:16:57;;;;;;;1999.90;999.90;;;11.40;99.90;;;;;;5066265;28;20429;-71
2023/10/24 04:19:24;;;;;;;1999.90;999.90;;;11.40;99.90;;;;;;5064217;28;20438;-71
2023/10/24 04:21:50;;;;;;;1999.90;999.90;;;11.30;99.90;;;;;;5069442;28;20934;-69
2023/10/24 04:24:17;;;;;;;1999.90;999.90;;;11.30;99.90;;;;;;5071234;28;20452;-72
2023/10/24 04:26:44;;;;;;;1999.90;999.90;;;11.40;99.90;;;;;;5069526;28;20925;-71
2023/10/24 04:29:11;;;;;;;1999.90;999.90;;;11.40;99.90;;;;;;5070847;28;20435;-71
2023/10/24 04:31:39;;;;;;;1999.90;999.90;;;11.50;99.90;;;;;;5066372;28;20431;-71
2023/10/24 04:34:06;;;;;;;1999.90;999.90;;;11.60;99.90;;;;;;5063727;28;20435;-72
2023/10/24 04:36:33;;;;;;;1999.90;999.90;;;11.60;99.90;;;;;;5063509;28;20433;-71
2023/10/24 04:38:59;;;;;;;1999.90;999.90;;;11.90;99.90;;;;;;5066511;28;20809;-71
2023/10/24 04:41:26;;;;;;;1999.90;999.90;;;11.90;99.90;;;;;;5067527;28;20494;-71
2023/10/24 04:43:53;;;;;;;1999.90;999.90;;;11.70;99.90;;;;;;5062400;28;20510;-71
2023/10/24 04:46:20;;;;;;;1999.90;999.90;;;11.80;99.90;;;;;;5068434;28;20432;-71
2023/10/24 04:48:48;;;;;;;1999.90;999.90;;;11.80;99.90;;;;;;5061281;28;20437;-70
2023/10/24 04:51:14;;;;;;;1999.90;999.90;;;11.80;99.90;;;;;;5066022;28;20436;-71
2023/10/24 04:53:41;;;;;;;1999.90;999.90;;;11.70;99.90;;;;;;5066901;28;20434;-72
2023/10/24 04:56:08;;;;;;;1999.90;999.90;;;11.70;99.90;;;;;;5064313;28;20432;-72
2023/10/24 04:58:35;;;;;;;1999.90;999.90;;;11.60;99.90;;;;;;5067782;28;20429;-72
2023/10/24 05:01:02;;;;;;;1999.90;999.90;;;11.60;99.90;;;;;;5065025;28;20427;-73
2023/10/24 05:03:29;;;;;;;1999.90;999.90;;;11.60;99.90;;;;;;5065836;28;20432;-71
2023/10/24 05:05:57;;;;;;;1999.90;999.90;;;11.50;99.90;;;;;;5068493;28;20838;-73
2023/10/24 05:08:23;;;;;;;1999.90;999.90;;;11.80;99.90;;;;;;5065243;28;20427;-73
2023/10/24 05:10:50;;;;;;;1999.90;999.90;;;11.70;99.90;;;;;;5069722;28;20431;-72
2023/10/24 05:13:17;;;;;;;1999.90;999.90;;;11.60;99.90;;;;;;5063793;28;21069;-72
2023/10/24 05:15:45;;;;;;;1999.90;999.90;;;11.70;99.90;;;;;;5068991;28;20435;-72
2023/10/24 05:18:13;;;;;;;1999.90;999.90;;;11.70;99.90;;;;;;5064901;28;20446;-72
2023/10/24 05:20:40;;;;;;;1999.90;999.90;;;11.70;99.90;;;;;;5068686;28;20518;-72
2023/10/24 05:23:08;;;;;;;1999.90;999.90;;;12.00;99.90;;;;;;5068143;28;20917;-72
2023/10/24 05:25:35;;;;;;;1999.90;999.90;;;12.00;99.90;;;;;;5065651;28;20478;-72
2023/10/24 05:28:02;;;;;;;1999.90;999.90;;;12.20;99.90;;;;;;5068318;28;20467;-72
2023/10/24 05:30:29;;;;;;;1999.90;999.90;;;12.40;99.90;;;;;;5062865;28;20438;-71
2023/10/24 05:32:58;;;;;;;1999.90;999.90;;;12.50;99.90;;;;;;5065278;28;20427;-72
2023/10/24 05:35:24;;;;;;;1999.90;999.90;;;12.50;99.90;;;;;;5060596;28;20517;-72
2023/10/24 05:37:51;;;;;;;1999.90;999.90;;;12.50;99.90;;;;;;5067527;28;20438;-72
2023/10/24 05:40:19;;;;;;;1999.90;999.90;;;12.40;99.90;;;;;;5066275;28;20921;-72
2023/10/24 05:42:46;;;;;;;1999.90;999.90;;;12.40;99.90;;;;;;5064582;28;20524;-73
2023/10/24 05:45:13;;;;;;;1999.90;999.90;;;12.30;99.90;;;;;;5063683;28;20424;-71
2023/10/24 05:47:40;;;;;;;1999.90;999.90;;;12.20;99.90;;;;;;5064649;28;20437;-71
2023/10/24 05:50:07;;;;;;;1999.90;999.90;;;12.20;99.90;;;;;;5066177;28;20427;-72
2023/10/24 05:52:34;;;;;;;1999.90;999.90;;;12.10;99.90;;;;;;5064024;28;20431;-71
2023/10/24 05:55:01;;;;;;;1999.90;999.90;;;12.10;99.90;;;;;;5060854;28;20440;-72
2023/10/24 05:57:30;;;;;;;1999.90;999.90;;;11.70;99.90;;;;;;5069318;28;20427;-72
2023/10/24 05:59:57;;;;;;;1999.90;999.90;;;11.70;99.90;;;;;;5060223;28;20439;-72
2023/10/24 06:02:24;;;;;;;1999.90;999.90;;;11.70;99.90;;;;;;5066370;28;20435;-73
2023/10/24 06:04:51;;;;;;;1999.90;999.90;;;11.80;99.90;;;;;;5065325;28;20435;-71
2023/10/24 06:07:17;;;;;;;1999.90;999.90;;;11.80;99.90;;;;;;5061780;28;20930;-72
2023/10/24 06:09:44;;;;;;;1999.90;999.90;;;11.80;99.90;;;;;;5060534;28;20448;-72
2023/10/24 06:12:11;;;;;;;1999.90;999.90;;;11.80;99.90;;;;;;5063494;28;20423;-71
2023/10/24 06:14:39;;;;;;;1999.90;999.90;;;11.60;99.90;;;;;;5065789;28;20423;-73
2023/10/24 06:17:05;;;;;;;1999.90;999.90;;;11.50;99.90;;;;;;5063757;28;20433;-73
2023/10/24 06:19:33;;;;;;;1999.90;999.90;;;11.60;99.90;;;;;;5060786;28;20428;-70
2023/10/24 06:22:00;;;;;;;1999.90;999.90;;;11.40;99.90;;;;;;5063672;28;20439;-72
2023/10/24 06:24:26;;;;;;;1999.90;999.90;;;11.40;99.90;;;;;;5061752;28;20438;-72
2023/10/24 06:26:53;;;;;;;1999.90;999.90;;;11.50;99.90;;;;;;5067785;28;20445;-70
2023/10/24 06:29:20;;;;;;;1999.90;999.90;;;11.40;99.90;;;;;;5063417;28;20424;-72
2023/10/24 06:31:48;;;;;;;1999.90;999.90;;;11.40;99.90;;;;;;5066037;28;20444;-73
2023/10/24 06:34:14;;;;;;;1999.90;999.90;;;11.50;99.90;;;;;;5060677;28;20794;-71
2023/10/24 06:36:41;;;;;;;1999.90;999.90;;;11.70;99.90;;;;;;5064220;28;20439;-72
2023/10/24 06:39:09;;;;;;;1999.90;999.90;;;12.10;99.90;;;;;;5057313;28;20922;-71
2023/10/24 06:41:35;;;;;;;1999.90;999.90;;;12.20;99.90;;;;;;5066532;28;20917;-71
2023/10/24 06:44:02;;;;;;;1999.90;999.90;;;12.60;99.90;;;;;;5064296;28;20524;-71
2023/10/24 06:46:29;;;;;;;1999.90;999.90;;;12.50;99.90;;;;;;5063574;28;20423;-72
2023/10/24 06:48:57;;;;;;;1999.90;999.90;;;12.60;99.90;;;;;;5073030;28;22156;-71
2023/10/24 06:51:24;;;;;;;1999.90;999.90;;;12.60;99.90;;;;;;5076257;28;20437;-71
2023/10/24 06:53:51;;;;;;;1999.90;999.90;;;12.70;99.90;;;;;;5076580;28;20446;-71
2023/10/24 06:56:17;;;;;;;1999.90;999.90;;;12.70;99.90;;;;;;5071629;28;20438;-72
2023/10/24 06:58:44;;;;;;;1999.90;999.90;;;12.80;99.90;;;;;;5064208;28;20434;-71
2023/10/24 07:01:11;;;;;;;1999.90;999.90;;;12.90;99.90;;;;;;5072027;28;20426;-71
2023/10/24 07:03:38;;;;;;;1999.90;999.90;;;13.00;99.90;;;;;;5065985;28;20454;-71
2023/10/24 07:06:06;;;;;;;1999.90;999.90;;;13.00;99.90;;;;;;5064521;28;20432;-71
2023/10/24 07:08:34;;;;;;;1999.90;999.90;;;13.00;99.90;;;;;;5069169;28;20431;-72
2023/10/24 07:11:00;;;;;;;1999.90;999.90;;;13.10;99.90;;;;;;5070065;28;20759;-71
2023/10/24 07:13:29;;;;;;;1999.90;999.90;;;13.20;99.90;;;;;;5070564;28;20407;-72
2023/10/24 07:15:55;;;;;;;1999.90;999.90;;;13.20;99.90;;;;;;5070421;28;20443;-71
2023/10/24 07:18:22;;;;;;;1999.90;999.90;;;13.30;99.90;;;;;;5070310;28;20418;-71
2023/10/24 07:20:49;;;;;;;1999.90;999.90;;;13.30;99.90;;;;;;5068986;28;20455;-72
2023/10/24 07:23:18;;;;;;;1999.90;999.90;;;13.30;99.90;;;;;;5069287;28;20427;-72
2023/10/24 07:25:45;;;;;;;1999.90;999.90;;;13.40;99.90;;;;;;5063293;28;20523;-71
2023/10/24 07:28:12;;;;;;;1999.90;999.90;;;13.40;99.90;;;;;;5066211;28;20435;-71
2023/10/24 07:30:38;;;;;;;1999.90;999.90;;;13.50;99.90;;;;;;5072485;28;20418;-70
2023/10/24 07:33:05;;;;;;;1999.90;999.90;;;13.40;99.90;;;;;;5069746;28;20442;-70
2023/10/24 07:35:33;;;;;;;1999.90;999.90;;;13.40;99.90;;;;;;5061578;28;20436;-72
2023/10/24 07:38:00;;;;;;;1999.90;999.90;;;13.50;99.90;;;;;;5064371;28;20439;-71
2023/10/24 07:40:28;;;;;;;1999.90;999.90;;;13.50;99.90;;;;;;5065788;28;20929;-71
2023/10/24 07:42:55;;;;;;;1999.90;999.90;;;13.40;99.90;;;;;;5060048;28;20435;-71
2023/10/24 07:45:21;;;;;;;1999.90;999.90;;;13.40;99.90;;;;;;5056769;28;20921;-71
2023/10/24 07:47:48;;;;;;;1999.90;999.90;;;13.50;99.90;;;;;;5060988;28;20436;-71
2023/10/24 07:50:15;;;;;;;1999.90;999.90;;;13.50;99.90;;;;;;5065923;28;20442;-72
2023/10/24 07:52:42;;;;;;;1999.90;999.90;;;13.60;99.90;;;;;;5066213;28;20783;-71
2023/10/24 07:55:08;;;;;;;1999.90;999.90;;;13.60;99.90;;;;;;5066841;28;20423;-70
2023/10/24 07:57:37;;;;;;;1999.90;999.90;;;13.70;99.90;;;;;;5063377;28;20426;-71
2023/10/24 08:00:04;;;;;;;1999.90;999.90;;;13.70;99.90;;;;;;5064592;28;20432;-71
2023/10/24 08:02:31;;;;;;;1999.90;999.90;;;13.70;99.90;;;;;;5070304;28;20431;-71
2023/10/24 08:04:57;;;;;;;1999.90;999.90;;;13.80;99.90;;;;;;5069490;28;20404;-71
2023/10/24 08:07:24;;;;;;;1999.90;999.90;;;13.80;99.90;;;;;;5060059;28;20422;-71
2023/10/24 08:09:51;;;;;;;1999.90;999.90;;;13.90;99.90;;;;;;5067843;28;20480;-71
2023/10/24 08:12:18;;;;;;;1999.90;999.90;;;13.90;99.90;;;;;;5065129;28;20443;-72
2023/10/24 08:14:46;;;;;;;1999.90;999.90;;;13.90;99.90;;;;;;5069525;28;20428;-71
2023/10/24 08:17:12;;;;;;;1999.90;999.90;;;14.00;99.90;;;;;;5069702;28;20908;-70
2023/10/24 08:19:39;;;;;;;1999.90;999.90;;;13.90;99.90;;;;;;5069722;28;20415;-71
2023/10/24 08:22:06;;;;;;;1999.90;999.90;;;14.00;99.90;;;;;;5069761;28;20412;-71
2023/10/24 08:24:32;;;;;;;1999.90;999.90;;;14.10;99.90;;;;;;5060905;28;20457;-71
2023/10/24 08:26:59;;;;;;;1999.90;999.90;;;14.10;99.90;;;;;;5066683;28;20913;-70
2023/10/24 08:29:26;;;;;;;1999.90;999.90;;;14.20;99.90;;;;;;5064080;28;20821;-71
2023/10/24 08:31:55;;;;;;;1999.90;999.90;;;14.20;99.90;;;;;;5064140;28;20429;-71
2023/10/24 08:34:21;;;;;;;1999.90;999.90;;;14.20;99.90;;;;;;5064581;28;20442;-71
2023/10/24 08:36:48;;;;;;;1999.90;999.90;;;14.20;99.90;;;;;;5067437;28;20440;-71
2023/10/24 08:39:15;;;;;;;1999.90;999.90;;;14.30;99.90;;;;;;5070126;28;20431;-71
2023/10/24 08:41:47;;;;;;;1999.90;999.90;;;14.30;99.90;;;;;;5064719;28;20514;-71
2023/10/24 08:44:15;;;;;;;1999.90;999.90;;;14.40;99.90;;;;;;5073120;28;20431;-71
2023/10/24 08:46:41;;;;;;;1999.90;999.90;;;14.40;99.90;;;;;;5081444;28;20441;-71
2023/10/24 08:49:10;;;;;;;1999.90;999.90;;;14.50;99.90;;;;;;5063720;28;20445;-71
2023/10/24 08:51:37;;;;;;;1999.90;999.90;;;14.50;99.90;;;;;;5064591;28;20440;-71
2023/10/24 08:54:04;;;;;;;1999.90;999.90;;;14.50;99.90;;;;;;5065616;28;20440;-71
2023/10/24 08:56:33;;;;;;;1999.90;999.90;;;14.60;99.90;;;;;;5070022;28;20481;-71
2023/10/24 08:59:01;;;;;;;1999.90;999.90;;;14.50;99.90;;;;;;5069927;28;20462;-71
2023/10/24 09:01:29;;;;;;;1999.90;999.90;;;14.50;99.90;;;;;;5061245;28;20429;-71
2023/10/24 09:03:56;;;;;;;1999.90;999.90;;;14.50;99.90;;;;;;5061116;28;20437;-71
2023/10/24 09:06:24;;;;;;;1999.90;999.90;;;14.50;99.90;;;;;;5063485;28;20451;-70
2023/10/24 09:08:51;;;;;;;1999.90;999.90;;;14.50;99.90;;;;;;5062716;28;20454;-70
2023/10/24 09:11:18;;;;;;;1999.90;999.90;;;14.60;99.90;;;;;;5066855;28;20441;-71
2023/10/24 09:13:45;;;;;;;1999.90;999.90;;;14.60;99.90;;;;;;5071023;28;20430;-70
2023/10/24 09:16:12;;;;;;;1999.90;999.90;;;14.70;99.90;;;;;;5074319;28;20419;-70
2023/10/24 09:18:41;;;;;;;1999.90;999.90;;;14.70;99.90;;;;;;5073369;28;20446;-71
2023/10/24 09:21:09;;;;;;;1999.90;999.90;;;14.80;99.90;;;;;;5071465;28;20426;-71
2023/10/24 09:23:38;;;;;;;1999.90;999.90;;;15.00;99.90;;;;;;5070170;28;20438;-71
2023/10/24 09:26:05;;;;;;;1999.90;999.90;;;15.00;99.90;;;;;;5072727;28;20422;-70
2023/10/24 09:28:33;;;;;;;1999.90;999.90;;;15.00;99.90;;;;;;5067808;28;20464;-70
2023/10/24 09:31:00;;;;;;;1999.90;999.90;;;14.80;99.90;;;;;;5064839;28;20440;-69
2023/10/24 09:33:27;;;;;;;1999.90;999.90;;;14.80;99.90;;;;;;5058542;28;20427;-70
2023/10/24 09:35:54;;;;;;;1999.90;999.90;;;15.00;99.90;;;;;;5061701;28;21144;-69
2023/10/24 09:38:22;;;;;;;1999.90;999.90;;;15.10;99.90;;;;;;5063053;28;20427;-70
2023/10/24 09:40:51;;;;;;;1999.90;999.90;;;15.00;99.90;;;;;;5066427;28;20431;-71
2023/10/24 09:43:21;;;;;;;1999.90;999.90;;;14.80;99.90;;;;;;5057277;28;21022;-71
2023/10/24 09:45:48;;;;;;;1999.90;999.90;;;14.80;99.90;;;;;;5062307;28;20425;-69
2023/10/24 09:48:17;;;;;;;1999.90;999.90;;;14.80;99.90;;;;;;5063508;28;20496;-70
2023/10/24 09:50:44;;;;;;;1999.90;999.90;;;14.80;99.90;;;;;;5065641;28;20929;-69
2023/10/24 09:53:12;;;;;;;1999.90;999.90;;;14.80;99.90;;;;;;5071584;28;20802;-70
2023/10/24 09:55:41;;;;;;;1999.90;999.90;;;14.90;99.90;;;;;;5071698;28;20438;-69
2023/10/24 09:58:09;;;;;;;1999.90;999.90;;;15.00;99.90;;;;;;5071392;28;20476;-70
2023/10/24 10:00:37;;;;;;;1999.90;999.90;;;15.20;99.90;;;;;;5071349;28;20465;-70
2023/10/24 10:03:05;;;;;;;1999.90;999.90;;;15.10;99.90;;;;;;5070243;28;20494;-70
2023/10/24 10:05:32;;;;;;;1999.90;999.90;;;15.00;99.90;;;;;;5071481;28;20948;-68
2023/10/24 10:08:02;;;;;;;1999.90;999.90;;;15.10;99.90;;;;;;5071509;28;20415;-70
2023/10/24 10:10:30;;;;;;;1999.90;999.90;;;15.30;99.90;;;;;;5071322;28;20847;-70
2023/10/24 10:13:02;;;;;;;1999.90;999.90;;;15.60;99.90;;;;;;5069405;28;20438;-70
2023/10/24 10:15:51;;;;;;;1999.90;999.90;;;15.50;99.90;;;;;;5055968;28;20435;-70
2023/10/24 10:18:33;;;;;;;1999.90;999.90;;;15.60;99.90;;;;;;5058094;28;20450;-70
2023/10/24 10:21:09;;;;;;;1999.90;999.90;;;15.70;99.90;;;;;;5060644;28;20433;-70
2023/10/24 10:23:58;;;;;;;1999.90;999.90;;;15.90;99.90;;;;;;5066163;28;20484;-70
2023/10/24 10:26:39;;;;;;;1999.90;999.90;;;15.90;99.90;;;;;;5066759;28;20805;-70
2023/10/24 10:29:13;;;;;;;1999.90;999.90;;;15.80;99.90;;;;;;5056158;28;20434;-69
2023/10/24 10:31:52;;;;;;;1999.90;999.90;;;16.00;99.90;;;;;;5062558;28;20447;-70
2023/10/24 10:34:18;;;;;;;1999.90;999.90;;;16.00;99.90;;;;;;5066665;28;20439;-69
2023/10/24 10:36:55;;;;;;;1999.90;999.90;;;16.00;99.90;;;;;;5068840;28;20435;-70
2023/10/24 10:39:22;;;;;;;1999.90;999.90;;;15.90;99.90;;;;;;5060446;28;20432;-70
2023/10/24 10:42:40;;;;;;;1999.90;999.90;;;15.90;99.90;;;;;;5034794;28;20475;-71
2023/10/24 10:45:24;;;;;;;1999.90;999.90;;;15.90;99.90;;;;;;5066061;28;20415;-71
2023/10/24 10:47:53;;;;;;;1999.90;999.90;;;15.90;99.90;;;;;;5069904;28;20427;-70
2023/10/24 10:50:24;;;;;;;1999.90;999.90;;;15.80;99.90;;;;;;5066211;28;20984;-71
2023/10/24 10:53:01;;;;;;;1999.90;999.90;;;15.70;99.90;;;;;;5059352;28;20512;-70
2023/10/24 10:55:35;;;;;;;1999.90;999.90;;;15.70;99.90;;;;;;5058732;28;20510;-70
2023/10/24 10:58:05;;;;;;;1999.90;999.90;;;15.70;99.90;;;;;;5067676;28;20412;-70
2023/10/24 11:00:52;;;;;;;1999.90;999.90;;;15.60;99.90;;;;;;5070548;28;20404;-70
2023/10/24 11:03:37;;;;;;;1999.90;999.90;;;15.60;99.90;;;;;;5062156;28;20905;-70
2023/10/24 11:06:12;;;;;;;1999.90;999.90;;;15.50;99.90;;;;;;5069150;28;20427;-68
2023/10/24 11:08:41;;;;;;;1999.90;999.90;;;15.50;99.90;;;;;;5070229;28;20415;-70
2023/10/24 11:11:09;;;;;;;1999.90;999.90;;;15.70;99.90;;;;;;5070189;28;20443;-71
2023/10/24 11:13:38;;;;;;;1999.90;999.90;;;15.60;99.90;;;;;;5070143;28;20894;-71
2023/10/24 11:16:06;;;;;;;1999.90;999.90;;;15.50;99.90;;;;;;5070221;28;20435;-68
2023/10/24 11:18:35;;;;;;;1999.90;999.90;;;15.60;99.90;;;;;;5067513;28;20946;-70
2023/10/24 11:21:04;;;;;;;1999.90;999.90;;;15.50;99.90;;;;;;5064105;28;20432;-70
2023/10/24 11:23:32;;;;;;;1999.90;999.90;;;15.30;99.90;;;;;;5064980;28;20433;-69
2023/10/24 11:25:59;;;;;;;1999.90;999.90;;;15.30;99.90;;;;;;5052212;28;20483;-68
2023/10/24 11:28:27;;;;;;;1999.90;999.90;;;15.40;99.90;;;;;;5055171;28;20461;-70
2023/10/24 11:30:54;;;;;;;1999.90;999.90;;;15.40;99.90;;;;;;5063227;28;20551;-70
2023/10/24 11:33:21;;;;;;;1999.90;999.90;;;15.40;99.90;;;;;;5065130;28;20450;-70
2023/10/24 11:35:49;;;;;;;1999.90;999.90;;;15.40;99.90;;;;;;5065963;28;20925;-71
2023/10/24 11:38:16;;;;;;;1999.90;999.90;;;15.40;99.90;;;;;;5059566;28;20432;-70
2023/10/24 11:40:46;;;;;;;1999.90;999.90;;;15.40;99.90;;;;;;5053704;28;20550;-71
2023/10/24 11:43:14;;;;;;;1999.90;999.90;;;15.30;99.90;;;;;;5059416;28;20583;-70
2023/10/24 11:45:41;;;;;;;1999.90;999.90;;;15.20;99.90;;;;;;5064269;28;20474;-69
2023/10/24 11:48:08;;;;;;;1999.90;999.90;;;15.10;99.90;;;;;;5064202;28;20466;-70
2023/10/24 11:50:43;;;;;;;1999.90;999.90;;;15.20;99.90;;;;;;5067599;28;20930;-70
2023/10/24 11:53:12;;;;;;;1999.90;999.90;;;15.10;99.90;;;;;;5054693;28;20478;-69
2023/10/24 11:55:39;;;;;;;1999.90;999.90;;;15.00;99.90;;;;;;5056852;28;20424;-70
2023/10/24 11:58:08;;;;;;;1999.90;999.90;;;14.90;99.90;;;;;;5060011;28;20456;-70
2023/10/24 12:00:40;;;;;;;1999.90;999.90;;;14.90;99.90;;;;;;5065608;28;20439;-69
2023/10/24 12:03:07;;;;;;;1999.90;999.90;;;14.90;99.90;;;;;;5065913;28;20435;-70